Kezdőlap
METAR-TAF:

METAR-TAF

Repülőterek :

Guilin, Kína

földrajzi szélesség: 25-20N, földrajzi hosszúság: 110-18E, magasság: 166 m

Jelenlegi meteorológiai megfigyelések

A jelentés 51 perccel ezelõtt készült, 21:00 UTC
Szélcsend
Hőmérséklet 14°C
Páratartalom 94%
Légköri nyomás 1018 hPa
Látótávolság: 2500 m
Kevés felhő 1000 lábon
Szórványos felhőzet 2600 lábon
Borult 4300 lábon
enyhe esõ, Párásság

METAR: ZGKL 162100Z 00000MPS 2500 -RA BR FEW010 SCT026 OVC043 14/13 Q1018 NOSIG

Idő: 05:51 (21:51 UTC)

Előrejelzés

A jelentés 6 órával és 40 perccel ezelõtt készült, 15:11 UTC
Az előrejelzés 16-én 18 óra UTC és 17-én 18 óra UTC között érvényes
Északkeleti szél 6 kt
Látótávolság: 5000 m
Kevés felhő 1000 lábon
Szórványos felhőzet 2600 lábon
Borult 4000 lábon
enyhe esõ, Párásság

TAF: ZGKL 161511Z 1618/1718 05003MPS 5000 -RA BR FEW010 SCT026 OVC040 TX16/1708Z TN13/1622Z

Meteorológiai megfigyelések és előrejelzések több, mint 4000 repülőtéren (METAR és TAF jelentéseket).

A térképen piros és sárga pontok jelzik az elérhető meteorológiai állomásokat.

Mozgassa az egeret a pont fölött, hogy megjelenjen az állomás neve.

Azután kattintson az időjárási megfigyelések és előrejelzések megtekintéséhez.

A térkép megváltoztatása: kattintson a fekete keresztel jelölt zöld gombra ráközelítéshez, a vonallal jelölt zöld gombra távolításhoz, vagy a zöld nyilakra a szomszédos térképek eléréséhez.


METAR-TAF: